sensor_id;sensor_type;location;lat;lon;timestamp;P1;durP1;ratioP1;P2;durP2;ratioP2
10963;SDS011;5534;48.784;9.190;2023-02-14T00:01:46;13.53;;;8.57;;
10963;SDS011;5534;48.784;9.190;2023-02-14T00:04:15;14.30;;;9.23;;
10963;SDS011;5534;48.784;9.190;2023-02-14T00:06:41;15.70;;;10.10;;
10963;SDS011;5534;48.784;9.190;2023-02-14T00:09:09;15.70;;;9.07;;
10963;SDS011;5534;48.784;9.190;2023-02-14T00:11:37;15.53;;;8.90;;
10963;SDS011;5534;48.784;9.190;2023-02-14T00:14:03;15.27;;;9.30;;
10963;SDS011;5534;48.784;9.190;2023-02-14T00:16:48;15.63;;;9.67;;
10963;SDS011;5534;48.784;9.190;2023-02-14T00:19:14;14.00;;;8.37;;
10963;SDS011;5534;48.784;9.190;2023-02-14T00:21:41;15.70;;;9.03;;
10963;SDS011;5534;48.784;9.190;2023-02-14T00:24:09;13.83;;;8.80;;
10963;SDS011;5534;48.784;9.190;2023-02-14T00:26:40;15.00;;;9.07;;
10963;SDS011;5534;48.784;9.190;2023-02-14T00:29:06;15.97;;;9.73;;
10963;SDS011;5534;48.784;9.190;2023-02-14T00:31:35;15.87;;;9.23;;
10963;SDS011;5534;48.784;9.190;2023-02-14T00:34:02;14.53;;;9.27;;
10963;SDS011;5534;48.784;9.190;2023-02-14T00:36:29;17.20;;;10.33;;
10963;SDS011;5534;48.784;9.190;2023-02-14T00:38:56;16.07;;;10.27;;
10963;SDS011;5534;48.784;9.190;2023-02-14T00:41:21;16.67;;;9.87;;
10963;SDS011;5534;48.784;9.190;2023-02-14T00:43:48;17.30;;;10.00;;
10963;SDS011;5534;48.784;9.190;2023-02-14T00:46:15;15.23;;;8.90;;
10963;SDS011;5534;48.784;9.190;2023-02-14T00:48:43;15.63;;;9.80;;
10963;SDS011;5534;48.784;9.190;2023-02-14T00:51:09;18.30;;;9.57;;
10963;SDS011;5534;48.784;9.190;2023-02-14T00:53:35;16.43;;;9.23;;
10963;SDS011;5534;48.784;9.190;2023-02-14T00:56:02;15.17;;;8.97;;
10963;SDS011;5534;48.784;9.190;2023-02-14T00:58:28;13.67;;;8.67;;
10963;SDS011;5534;48.784;9.190;2023-02-14T01:00:54;13.57;;;8.37;;
10963;SDS011;5534;48.784;9.190;2023-02-14T01:03:20;16.87;;;9.90;;
10963;SDS011;5534;48.784;9.190;2023-02-14T01:05:46;17.03;;;9.67;;
10963;SDS011;5534;48.784;9.190;2023-02-14T01:08:12;14.17;;;8.90;;
10963;SDS011;5534;48.784;9.190;2023-02-14T01:10:39;17.50;;;9.17;;
10963;SDS011;5534;48.784;9.190;2023-02-14T01:13:04;14.67;;;9.13;;
10963;SDS011;5534;48.784;9.190;2023-02-14T01:15:31;15.43;;;8.93;;
10963;SDS011;5534;48.784;9.190;2023-02-14T01:17:58;14.70;;;9.30;;
10963;SDS011;5534;48.784;9.190;2023-02-14T01:20:25;15.20;;;9.07;;
10963;SDS011;5534;48.784;9.190;2023-02-14T01:22:51;15.17;;;9.33;;
10963;SDS011;5534;48.784;9.190;2023-02-14T01:25:17;16.93;;;9.57;;
10963;SDS011;5534;48.784;9.190;2023-02-14T01:27:43;15.27;;;9.37;;
10963;SDS011;5534;48.784;9.190;2023-02-14T01:30:09;17.40;;;10.30;;
10963;SDS011;5534;48.784;9.190;2023-02-14T01:32:35;15.87;;;9.13;;
10963;SDS011;5534;48.784;9.190;2023-02-14T01:35:01;14.63;;;8.83;;
10963;SDS011;5534;48.784;9.190;2023-02-14T01:37:26;15.63;;;8.53;;
10963;SDS011;5534;48.784;9.190;2023-02-14T01:39:54;18.57;;;10.23;;
10963;SDS011;5534;48.784;9.190;2023-02-14T01:42:19;15.30;;;9.63;;
10963;SDS011;5534;48.784;9.190;2023-02-14T01:47:14;16.97;;;9.30;;
10963;SDS011;5534;48.784;9.190;2023-02-14T01:49:46;15.93;;;9.17;;
10963;SDS011;5534;48.784;9.190;2023-02-14T01:52:19;14.30;;;8.80;;
10963;SDS011;5534;48.784;9.190;2023-02-14T01:54:53;16.17;;;8.87;;
10963;SDS011;5534;48.784;9.190;2023-02-14T01:57:23;15.33;;;9.57;;
10963;SDS011;5534;48.784;9.190;2023-02-14T01:59:54;15.33;;;9.33;;
10963;SDS011;5534;48.784;9.190;2023-02-14T02:02:41;15.17;;;9.33;;
10963;SDS011;5534;48.784;9.190;2023-02-14T02:05:07;15.87;;;9.43;;
10963;SDS011;5534;48.784;9.190;2023-02-14T02:07:34;14.27;;;8.90;;
10963;SDS011;5534;48.784;9.190;2023-02-14T02:10:02;15.57;;;9.30;;
10963;SDS011;5534;48.784;9.190;2023-02-14T02:12:31;14.53;;;8.90;;
10963;SDS011;5534;48.784;9.190;2023-02-14T02:14:59;16.47;;;8.93;;
10963;SDS011;5534;48.784;9.190;2023-02-14T02:20:59;14.30;;;8.93;;
10963;SDS011;5534;48.784;9.190;2023-02-14T02:29:07;15.70;;;9.40;;
10963;SDS011;5534;48.784;9.190;2023-02-14T02:31:52;16.80;;;9.40;;
10963;SDS011;5534;48.784;9.190;2023-02-14T02:34:34;18.20;;;9.90;;
10963;SDS011;5534;48.784;9.190;2023-02-14T02:46:03;15.07;;;9.27;;
10963;SDS011;5534;48.784;9.190;2023-02-14T02:48:56;14.33;;;9.10;;
10963;SDS011;5534;48.784;9.190;2023-02-14T02:51:36;16.97;;;10.07;;
10963;SDS011;5534;48.784;9.190;2023-02-14T02:54:40;15.90;;;9.83;;
10963;SDS011;5534;48.784;9.190;2023-02-14T02:57:24;15.90;;;9.30;;
10963;SDS011;5534;48.784;9.190;2023-02-14T02:59:56;18.70;;;9.77;;
10963;SDS011;5534;48.784;9.190;2023-02-14T03:02:30;14.90;;;9.13;;
10963;SDS011;5534;48.784;9.190;2023-02-14T03:05:18;17.63;;;10.40;;
10963;SDS011;5534;48.784;9.190;2023-02-14T03:07:45;16.40;;;9.93;;
10963;SDS011;5534;48.784;9.190;2023-02-14T03:10:18;17.27;;;9.10;;
10963;SDS011;5534;48.784;9.190;2023-02-14T03:15:39;13.30;;;8.87;;
10963;SDS011;5534;48.784;9.190;2023-02-14T03:26:56;18.57;;;10.70;;
10963;SDS011;5534;48.784;9.190;2023-02-14T03:29:43;16.30;;;10.07;;
10963;SDS011;5534;48.784;9.190;2023-02-14T03:32:26;20.07;;;10.43;;
10963;SDS011;5534;48.784;9.190;2023-02-14T03:38:06;18.83;;;10.67;;
10963;SDS011;5534;48.784;9.190;2023-02-14T03:43:47;17.60;;;11.03;;
10963;SDS011;5534;48.784;9.190;2023-02-14T03:46:27;20.33;;;11.13;;
10963;SDS011;5534;48.784;9.190;2023-02-14T03:49:01;21.77;;;11.23;;
10963;SDS011;5534;48.784;9.190;2023-02-14T03:51:30;18.27;;;10.50;;
10963;SDS011;5534;48.784;9.190;2023-02-14T03:53:58;18.63;;;11.33;;
10963;SDS011;5534;48.784;9.190;2023-02-14T03:59:21;19.77;;;11.13;;
10963;SDS011;5534;48.784;9.190;2023-02-14T04:01:51;18.50;;;11.13;;
10963;SDS011;5534;48.784;9.190;2023-02-14T04:04:18;21.20;;;11.37;;
10963;SDS011;5534;48.784;9.190;2023-02-14T04:06:47;20.27;;;10.93;;
10963;SDS011;5534;48.784;9.190;2023-02-14T04:09:12;18.37;;;10.73;;
10963;SDS011;5534;48.784;9.190;2023-02-14T04:11:38;17.73;;;10.57;;
10963;SDS011;5534;48.784;9.190;2023-02-14T04:14:04;22.23;;;12.27;;
10963;SDS011;5534;48.784;9.190;2023-02-14T04:16:30;22.33;;;11.57;;
10963;SDS011;5534;48.784;9.190;2023-02-14T04:19:16;19.80;;;10.77;;
10963;SDS011;5534;48.784;9.190;2023-02-14T04:21:48;18.40;;;10.27;;
10963;SDS011;5534;48.784;9.190;2023-02-14T04:24:15;17.70;;;10.93;;
10963;SDS011;5534;48.784;9.190;2023-02-14T04:26:41;20.93;;;11.03;;
10963;SDS011;5534;48.784;9.190;2023-02-14T04:29:27;18.30;;;10.23;;
10963;SDS011;5534;48.784;9.190;2023-02-14T04:31:54;18.60;;;11.13;;
10963;SDS011;5534;48.784;9.190;2023-02-14T04:34:19;16.37;;;10.63;;
10963;SDS011;5534;48.784;9.190;2023-02-14T04:36:45;19.20;;;11.30;;
10963;SDS011;5534;48.784;9.190;2023-02-14T04:39:11;19.00;;;11.07;;
10963;SDS011;5534;48.784;9.190;2023-02-14T04:41:36;19.00;;;11.47;;
10963;SDS011;5534;48.784;9.190;2023-02-14T04:44:02;17.27;;;10.30;;
10963;SDS011;5534;48.784;9.190;2023-02-14T04:46:28;16.20;;;10.93;;
10963;SDS011;5534;48.784;9.190;2023-02-14T04:48:54;18.70;;;10.20;;
10963;SDS011;5534;48.784;9.190;2023-02-14T04:51:20;19.53;;;11.30;;
10963;SDS011;5534;48.784;9.190;2023-02-14T04:53:45;16.60;;;9.77;;
10963;SDS011;5534;48.784;9.190;2023-02-14T04:56:11;19.37;;;10.33;;
10963;SDS011;5534;48.784;9.190;2023-02-14T04:58:37;19.73;;;10.90;;
10963;SDS011;5534;48.784;9.190;2023-02-14T05:01:02;18.10;;;10.13;;
10963;SDS011;5534;48.784;9.190;2023-02-14T05:03:28;19.43;;;11.03;;
10963;SDS011;5534;48.784;9.190;2023-02-14T05:05:54;17.33;;;10.53;;
10963;SDS011;5534;48.784;9.190;2023-02-14T05:08:19;17.77;;;10.53;;
10963;SDS011;5534;48.784;9.190;2023-02-14T05:10:45;17.17;;;10.23;;
10963;SDS011;5534;48.784;9.190;2023-02-14T05:13:11;18.77;;;10.53;;
10963;SDS011;5534;48.784;9.190;2023-02-14T05:15:37;17.97;;;10.40;;
10963;SDS011;5534;48.784;9.190;2023-02-14T05:18:03;16.80;;;10.33;;
10963;SDS011;5534;48.784;9.190;2023-02-14T05:20:30;17.47;;;10.63;;
10963;SDS011;5534;48.784;9.190;2023-02-14T05:22:56;20.13;;;11.30;;
10963;SDS011;5534;48.784;9.190;2023-02-14T05:25:27;20.57;;;11.57;;
10963;SDS011;5534;48.784;9.190;2023-02-14T05:27:54;18.37;;;11.57;;
10963;SDS011;5534;48.784;9.190;2023-02-14T05:30:20;25.10;;;11.90;;
10963;SDS011;5534;48.784;9.190;2023-02-14T05:32:52;22.87;;;12.10;;
10963;SDS011;5534;48.784;9.190;2023-02-14T05:35:18;21.47;;;11.67;;
10963;SDS011;5534;48.784;9.190;2023-02-14T05:37:43;19.50;;;12.17;;
10963;SDS011;5534;48.784;9.190;2023-02-14T05:40:09;19.13;;;10.87;;
10963;SDS011;5534;48.784;9.190;2023-02-14T05:42:38;21.17;;;11.47;;
10963;SDS011;5534;48.784;9.190;2023-02-14T05:45:04;18.70;;;10.43;;
10963;SDS011;5534;48.784;9.190;2023-02-14T05:47:31;19.67;;;11.50;;
10963;SDS011;5534;48.784;9.190;2023-02-14T05:49:56;19.50;;;11.67;;
10963;SDS011;5534;48.784;9.190;2023-02-14T05:52:22;18.13;;;11.10;;
10963;SDS011;5534;48.784;9.190;2023-02-14T05:54:48;17.80;;;10.30;;
10963;SDS011;5534;48.784;9.190;2023-02-14T05:57:14;21.50;;;11.80;;
10963;SDS011;5534;48.784;9.190;2023-02-14T05:59:40;22.73;;;11.53;;
10963;SDS011;5534;48.784;9.190;2023-02-14T06:02:06;20.87;;;12.37;;
10963;SDS011;5534;48.784;9.190;2023-02-14T06:04:32;24.57;;;11.17;;
10963;SDS011;5534;48.784;9.190;2023-02-14T06:06:57;21.77;;;11.73;;
10963;SDS011;5534;48.784;9.190;2023-02-14T06:09:23;16.83;;;10.53;;
10963;SDS011;5534;48.784;9.190;2023-02-14T06:11:49;20.43;;;11.83;;
10963;SDS011;5534;48.784;9.190;2023-02-14T06:14:15;20.03;;;11.37;;
10963;SDS011;5534;48.784;9.190;2023-02-14T06:16:40;18.97;;;10.50;;
10963;SDS011;5534;48.784;9.190;2023-02-14T06:19:06;23.20;;;11.20;;
10963;SDS011;5534;48.784;9.190;2023-02-14T06:21:32;18.30;;;11.13;;
10963;SDS011;5534;48.784;9.190;2023-02-14T06:23:58;19.50;;;10.53;;
10963;SDS011;5534;48.784;9.190;2023-02-14T06:26:23;21.97;;;12.53;;
10963;SDS011;5534;48.784;9.190;2023-02-14T06:28:55;19.13;;;11.03;;
10963;SDS011;5534;48.784;9.190;2023-02-14T06:31:23;22.50;;;13.23;;
10963;SDS011;5534;48.784;9.190;2023-02-14T06:33:52;26.30;;;12.17;;
10963;SDS011;5534;48.784;9.190;2023-02-14T06:36:18;22.70;;;12.67;;
10963;SDS011;5534;48.784;9.190;2023-02-14T06:38:45;26.07;;;12.97;;
10963;SDS011;5534;48.784;9.190;2023-02-14T06:41:12;21.43;;;12.30;;
10963;SDS011;5534;48.784;9.190;2023-02-14T06:43:42;19.43;;;11.03;;
10963;SDS011;5534;48.784;9.190;2023-02-14T06:46:09;19.87;;;11.23;;
10963;SDS011;5534;48.784;9.190;2023-02-14T06:48:35;19.00;;;10.93;;
10963;SDS011;5534;48.784;9.190;2023-02-14T06:51:01;23.40;;;12.30;;
10963;SDS011;5534;48.784;9.190;2023-02-14T06:53:27;19.23;;;10.83;;
10963;SDS011;5534;48.784;9.190;2023-02-14T06:55:53;19.83;;;11.40;;
10963;SDS011;5534;48.784;9.190;2023-02-14T06:58:18;22.27;;;12.77;;
10963;SDS011;5534;48.784;9.190;2023-02-14T07:00:45;21.77;;;11.67;;
10963;SDS011;5534;48.784;9.190;2023-02-14T07:03:12;21.63;;;12.53;;
10963;SDS011;5534;48.784;9.190;2023-02-14T07:05:38;19.57;;;11.83;;
10963;SDS011;5534;48.784;9.190;2023-02-14T07:08:04;20.93;;;12.77;;
10963;SDS011;5534;48.784;9.190;2023-02-14T07:10:35;22.37;;;12.70;;
10963;SDS011;5534;48.784;9.190;2023-02-14T07:13:02;24.33;;;13.17;;
10963;SDS011;5534;48.784;9.190;2023-02-14T07:15:28;21.83;;;11.80;;
10963;SDS011;5534;48.784;9.190;2023-02-14T07:17:54;19.73;;;11.90;;
10963;SDS011;5534;48.784;9.190;2023-02-14T07:20:20;22.33;;;12.30;;
10963;SDS011;5534;48.784;9.190;2023-02-14T07:22:46;21.27;;;11.97;;
10963;SDS011;5534;48.784;9.190;2023-02-14T07:25:12;20.90;;;12.27;;
10963;SDS011;5534;48.784;9.190;2023-02-14T07:27:39;22.67;;;12.60;;
10963;SDS011;5534;48.784;9.190;2023-02-14T07:30:06;20.17;;;12.07;;
10963;SDS011;5534;48.784;9.190;2023-02-14T07:32:36;20.90;;;12.13;;
10963;SDS011;5534;48.784;9.190;2023-02-14T07:35:02;19.93;;;12.17;;
10963;SDS011;5534;48.784;9.190;2023-02-14T07:37:30;20.87;;;11.50;;
10963;SDS011;5534;48.784;9.190;2023-02-14T07:39:56;21.70;;;12.63;;
10963;SDS011;5534;48.784;9.190;2023-02-14T07:42:22;20.83;;;12.00;;
10963;SDS011;5534;48.784;9.190;2023-02-14T07:44:48;21.07;;;12.57;;
10963;SDS011;5534;48.784;9.190;2023-02-14T07:47:14;22.63;;;12.37;;
10963;SDS011;5534;48.784;9.190;2023-02-14T07:49:39;20.23;;;11.93;;
10963;SDS011;5534;48.784;9.190;2023-02-14T07:52:05;21.53;;;12.27;;
10963;SDS011;5534;48.784;9.190;2023-02-14T07:54:31;19.60;;;12.33;;
10963;SDS011;5534;48.784;9.190;2023-02-14T07:56:57;20.27;;;12.70;;
10963;SDS011;5534;48.784;9.190;2023-02-14T07:59:23;21.13;;;12.03;;
10963;SDS011;5534;48.784;9.190;2023-02-14T08:01:48;22.67;;;11.83;;
10963;SDS011;5534;48.784;9.190;2023-02-14T08:04:14;21.60;;;12.13;;
10963;SDS011;5534;48.784;9.190;2023-02-14T08:06:41;20.00;;;12.13;;
10963;SDS011;5534;48.784;9.190;2023-02-14T08:09:08;24.30;;;12.73;;
10963;SDS011;5534;48.784;9.190;2023-02-14T08:11:35;21.40;;;12.27;;
10963;SDS011;5534;48.784;9.190;2023-02-14T08:14:20;21.83;;;12.60;;
10963;SDS011;5534;48.784;9.190;2023-02-14T08:16:46;23.87;;;12.70;;
10963;SDS011;5534;48.784;9.190;2023-02-14T08:19:12;22.60;;;13.30;;
10963;SDS011;5534;48.784;9.190;2023-02-14T08:21:38;23.03;;;13.20;;
10963;SDS011;5534;48.784;9.190;2023-02-14T08:24:03;23.60;;;12.57;;
10963;SDS011;5534;48.784;9.190;2023-02-14T08:26:29;20.23;;;11.73;;
10963;SDS011;5534;48.784;9.190;2023-02-14T08:28:56;20.67;;;11.50;;
10963;SDS011;5534;48.784;9.190;2023-02-14T08:31:29;19.50;;;11.60;;
10963;SDS011;5534;48.784;9.190;2023-02-14T08:33:58;21.83;;;12.60;;
10963;SDS011;5534;48.784;9.190;2023-02-14T08:36:24;21.77;;;12.47;;
10963;SDS011;5534;48.784;9.190;2023-02-14T08:38:50;20.20;;;12.27;;
10963;SDS011;5534;48.784;9.190;2023-02-14T08:41:16;19.97;;;12.13;;
10963;SDS011;5534;48.784;9.190;2023-02-14T08:43:43;22.93;;;13.23;;
10963;SDS011;5534;48.784;9.190;2023-02-14T08:46:10;21.50;;;12.50;;
10963;SDS011;5534;48.784;9.190;2023-02-14T08:48:36;22.57;;;12.83;;
10963;SDS011;5534;48.784;9.190;2023-02-14T08:51:03;20.93;;;12.50;;
10963;SDS011;5534;48.784;9.190;2023-02-14T08:53:33;23.43;;;12.90;;
10963;SDS011;5534;48.784;9.190;2023-02-14T08:56:03;26.27;;;14.37;;
10963;SDS011;5534;48.784;9.190;2023-02-14T08:58:30;21.07;;;12.30;;
10963;SDS011;5534;48.784;9.190;2023-02-14T09:00:56;21.73;;;12.63;;
10963;SDS011;5534;48.784;9.190;2023-02-14T09:03:22;21.80;;;12.77;;
10963;SDS011;5534;48.784;9.190;2023-02-14T09:05:48;17.90;;;12.07;;
10963;SDS011;5534;48.784;9.190;2023-02-14T09:08:13;19.37;;;11.57;;
10963;SDS011;5534;48.784;9.190;2023-02-14T09:10:39;26.50;;;14.73;;
10963;SDS011;5534;48.784;9.190;2023-02-14T09:13:05;21.00;;;12.47;;
10963;SDS011;5534;48.784;9.190;2023-02-14T09:15:31;18.27;;;11.80;;
10963;SDS011;5534;48.784;9.190;2023-02-14T09:17:57;20.67;;;12.00;;
10963;SDS011;5534;48.784;9.190;2023-02-14T09:20:23;22.27;;;12.33;;
10963;SDS011;5534;48.784;9.190;2023-02-14T09:22:48;20.50;;;12.67;;
10963;SDS011;5534;48.784;9.190;2023-02-14T09:25:14;21.80;;;12.53;;
10963;SDS011;5534;48.784;9.190;2023-02-14T09:27:41;21.07;;;12.50;;
10963;SDS011;5534;48.784;9.190;2023-02-14T09:30:06;20.30;;;12.57;;
10963;SDS011;5534;48.784;9.190;2023-02-14T09:32:33;20.67;;;12.30;;
10963;SDS011;5534;48.784;9.190;2023-02-14T09:34:59;22.17;;;12.97;;
10963;SDS011;5534;48.784;9.190;2023-02-14T09:37:44;21.13;;;12.57;;
10963;SDS011;5534;48.784;9.190;2023-02-14T09:40:11;19.93;;;12.57;;
10963;SDS011;5534;48.784;9.190;2023-02-14T09:45:24;23.27;;;12.40;;
10963;SDS011;5534;48.784;9.190;2023-02-14T09:48:00;21.47;;;12.67;;
10963;SDS011;5534;48.784;9.190;2023-02-14T09:55:55;20.57;;;12.67;;
10963;SDS011;5534;48.784;9.190;2023-02-14T09:58:35;21.27;;;11.77;;
10963;SDS011;5534;48.784;9.190;2023-02-14T10:01:16;22.00;;;11.77;;
10963;SDS011;5534;48.784;9.190;2023-02-14T10:04:12;20.17;;;11.90;;
10963;SDS011;5534;48.784;9.190;2023-02-14T10:12:39;23.73;;;11.97;;
10963;SDS011;5534;48.784;9.190;2023-02-14T10:15:29;21.70;;;12.17;;
10963;SDS011;5534;48.784;9.190;2023-02-14T10:18:03;17.20;;;11.33;;
10963;SDS011;5534;48.784;9.190;2023-02-14T10:23:02;18.97;;;11.60;;
10963;SDS011;5534;48.784;9.190;2023-02-14T10:25:37;20.40;;;12.37;;
10963;SDS011;5534;48.784;9.190;2023-02-14T10:28:10;19.37;;;12.00;;
10963;SDS011;5534;48.784;9.190;2023-02-14T10:30:39;17.77;;;11.17;;
10963;SDS011;5534;48.784;9.190;2023-02-14T10:33:12;18.27;;;11.23;;
10963;SDS011;5534;48.784;9.190;2023-02-14T10:35:52;17.80;;;10.70;;
10963;SDS011;5534;48.784;9.190;2023-02-14T10:41:30;19.37;;;11.83;;
10963;SDS011;5534;48.784;9.190;2023-02-14T10:47:12;18.47;;;10.77;;
10963;SDS011;5534;48.784;9.190;2023-02-14T10:52:38;18.27;;;10.97;;
10963;SDS011;5534;48.784;9.190;2023-02-14T10:56:06;18.03;;;11.20;;
10963;SDS011;5534;48.784;9.190;2023-02-14T10:58:21;17.50;;;10.77;;
10963;SDS011;5534;48.784;9.190;2023-02-14T11:03:17;16.77;;;10.30;;
10963;SDS011;5534;48.784;9.190;2023-02-14T11:05:46;18.20;;;11.00;;
10963;SDS011;5534;48.784;9.190;2023-02-14T11:13:48;18.07;;;11.87;;
10963;SDS011;5534;48.784;9.190;2023-02-14T11:16:33;14.93;;;9.90;;
10963;SDS011;5534;48.784;9.190;2023-02-14T11:21:47;16.90;;;10.13;;
10963;SDS011;5534;48.784;9.190;2023-02-14T11:24:24;18.07;;;10.83;;
10963;SDS011;5534;48.784;9.190;2023-02-14T11:26:59;18.97;;;11.33;;
10963;SDS011;5534;48.784;9.190;2023-02-14T11:29:26;18.60;;;10.97;;
10963;SDS011;5534;48.784;9.190;2023-02-14T11:31:52;19.93;;;10.80;;
10963;SDS011;5534;48.784;9.190;2023-02-14T11:34:23;17.60;;;12.00;;
10963;SDS011;5534;48.784;9.190;2023-02-14T11:36:54;15.73;;;10.17;;
10963;SDS011;5534;48.784;9.190;2023-02-14T11:39:24;18.47;;;12.33;;
10963;SDS011;5534;48.784;9.190;2023-02-14T11:41:55;17.87;;;11.20;;
10963;SDS011;5534;48.784;9.190;2023-02-14T11:44:24;18.80;;;10.77;;
10963;SDS011;5534;48.784;9.190;2023-02-14T11:46:54;20.67;;;10.53;;
10963;SDS011;5534;48.784;9.190;2023-02-14T11:49:33;18.93;;;10.13;;
10963;SDS011;5534;48.784;9.190;2023-02-14T11:52:09;16.93;;;10.10;;
10963;SDS011;5534;48.784;9.190;2023-02-14T11:54:41;15.20;;;10.30;;
10963;SDS011;5534;48.784;9.190;2023-02-14T11:57:18;18.47;;;11.10;;
10963;SDS011;5534;48.784;9.190;2023-02-14T11:59:46;16.37;;;10.67;;
10963;SDS011;5534;48.784;9.190;2023-02-14T12:05:06;15.33;;;10.23;;
10963;SDS011;5534;48.784;9.190;2023-02-14T12:07:44;17.30;;;9.87;;
10963;SDS011;5534;48.784;9.190;2023-02-14T12:15:28;15.07;;;9.63;;
10963;SDS011;5534;48.784;9.190;2023-02-14T12:18:19;18.17;;;9.97;;
10963;SDS011;5534;48.784;9.190;2023-02-14T12:20:57;25.03;;;11.60;;
10963;SDS011;5534;48.784;9.190;2023-02-14T12:29:22;14.43;;;9.80;;
10963;SDS011;5534;48.784;9.190;2023-02-14T12:32:02;18.47;;;11.20;;
10963;SDS011;5534;48.784;9.190;2023-02-14T12:34:46;14.17;;;10.30;;
10963;SDS011;5534;48.784;9.190;2023-02-14T12:42:47;16.47;;;11.13;;
10963;SDS011;5534;48.784;9.190;2023-02-14T13:05:57;16.43;;;11.07;;
10963;SDS011;5534;48.784;9.190;2023-02-14T13:08:44;16.57;;;10.83;;
10963;SDS011;5534;48.784;9.190;2023-02-14T13:14:15;14.93;;;10.17;;
10963;SDS011;5534;48.784;9.190;2023-02-14T13:22:35;20.37;;;11.90;;
10963;SDS011;5534;48.784;9.190;2023-02-14T13:25:03;18.37;;;11.50;;
10963;SDS011;5534;48.784;9.190;2023-02-14T13:27:37;15.27;;;10.90;;
10963;SDS011;5534;48.784;9.190;2023-02-14T13:30:15;16.10;;;10.50;;
10963;SDS011;5534;48.784;9.190;2023-02-14T13:32:48;16.53;;;10.67;;
10963;SDS011;5534;48.784;9.190;2023-02-14T13:35:17;16.03;;;10.93;;
10963;SDS011;5534;48.784;9.190;2023-02-14T13:37:48;15.50;;;10.90;;
10963;SDS011;5534;48.784;9.190;2023-02-14T13:40:22;18.07;;;11.47;;
10963;SDS011;5534;48.784;9.190;2023-02-14T13:42:57;16.73;;;11.33;;
10963;SDS011;5534;48.784;9.190;2023-02-14T13:50:51;16.33;;;10.53;;
10963;SDS011;5534;48.784;9.190;2023-02-14T13:56:04;19.73;;;11.90;;
10963;SDS011;5534;48.784;9.190;2023-02-14T13:58:30;16.47;;;10.90;;
10963;SDS011;5534;48.784;9.190;2023-02-14T14:00:57;16.03;;;10.77;;
10963;SDS011;5534;48.784;9.190;2023-02-14T14:05:59;15.80;;;10.53;;
10963;SDS011;5534;48.784;9.190;2023-02-14T14:11:00;15.33;;;10.97;;
10963;SDS011;5534;48.784;9.190;2023-02-14T14:16:19;17.33;;;11.50;;
10963;SDS011;5534;48.784;9.190;2023-02-14T14:21:41;17.60;;;11.07;;
10963;SDS011;5534;48.784;9.190;2023-02-14T14:27:11;14.50;;;10.33;;
10963;SDS011;5534;48.784;9.190;2023-02-14T14:29:58;14.77;;;10.80;;
10963;SDS011;5534;48.784;9.190;2023-02-14T14:37:43;17.87;;;11.30;;
10963;SDS011;5534;48.784;9.190;2023-02-14T14:40:22;18.50;;;11.50;;
10963;SDS011;5534;48.784;9.190;2023-02-14T14:42:49;20.00;;;11.77;;
10963;SDS011;5534;48.784;9.190;2023-02-14T14:45:20;14.33;;;10.97;;
10963;SDS011;5534;48.784;9.190;2023-02-14T14:47:49;17.30;;;11.87;;
10963;SDS011;5534;48.784;9.190;2023-02-14T14:50:21;17.97;;;11.60;;
10963;SDS011;5534;48.784;9.190;2023-02-14T14:52:56;18.77;;;11.43;;
10963;SDS011;5534;48.784;9.190;2023-02-14T14:55:36;17.93;;;11.40;;
10963;SDS011;5534;48.784;9.190;2023-02-14T14:58:28;17.70;;;11.50;;
10963;SDS011;5534;48.784;9.190;2023-02-14T15:00:56;14.47;;;10.63;;
10963;SDS011;5534;48.784;9.190;2023-02-14T15:03:23;19.27;;;11.83;;
10963;SDS011;5534;48.784;9.190;2023-02-14T15:05:51;17.80;;;11.90;;
10963;SDS011;5534;48.784;9.190;2023-02-14T15:08:39;17.23;;;11.17;;
10963;SDS011;5534;48.784;9.190;2023-02-14T15:16:25;17.50;;;11.40;;
10963;SDS011;5534;48.784;9.190;2023-02-14T15:19:35;18.13;;;11.93;;
10963;SDS011;5534;48.784;9.190;2023-02-14T15:22:17;21.50;;;13.03;;
10963;SDS011;5534;48.784;9.190;2023-02-14T15:24:51;18.97;;;12.67;;
10963;SDS011;5534;48.784;9.190;2023-02-14T15:27:19;21.10;;;12.73;;
10963;SDS011;5534;48.784;9.190;2023-02-14T15:29:59;17.53;;;11.73;;
10963;SDS011;5534;48.784;9.190;2023-02-14T15:32:29;18.07;;;11.30;;
10963;SDS011;5534;48.784;9.190;2023-02-14T15:34:57;21.83;;;12.87;;
10963;SDS011;5534;48.784;9.190;2023-02-14T15:37:25;19.17;;;11.73;;
10963;SDS011;5534;48.784;9.190;2023-02-14T15:39:52;17.87;;;11.93;;
10963;SDS011;5534;48.784;9.190;2023-02-14T15:42:30;17.83;;;11.97;;
10963;SDS011;5534;48.784;9.190;2023-02-14T15:45:18;17.70;;;12.20;;
10963;SDS011;5534;48.784;9.190;2023-02-14T15:47:49;16.87;;;11.70;;
10963;SDS011;5534;48.784;9.190;2023-02-14T15:50:18;18.43;;;11.60;;
10963;SDS011;5534;48.784;9.190;2023-02-14T15:52:48;18.73;;;11.80;;
10963;SDS011;5534;48.784;9.190;2023-02-14T15:55:18;16.47;;;11.53;;
10963;SDS011;5534;48.784;9.190;2023-02-14T15:57:46;18.67;;;11.87;;
10963;SDS011;5534;48.784;9.190;2023-02-14T16:00:23;18.43;;;11.23;;
10963;SDS011;5534;48.784;9.190;2023-02-14T16:02:53;20.60;;;11.90;;
10963;SDS011;5534;48.784;9.190;2023-02-14T16:05:25;17.07;;;11.33;;
10963;SDS011;5534;48.784;9.190;2023-02-14T16:07:59;14.83;;;11.07;;
10963;SDS011;5534;48.784;9.190;2023-02-14T16:10:34;19.60;;;11.50;;
10963;SDS011;5534;48.784;9.190;2023-02-14T16:13:02;17.53;;;11.83;;
10963;SDS011;5534;48.784;9.190;2023-02-14T16:17:58;16.67;;;10.87;;
10963;SDS011;5534;48.784;9.190;2023-02-14T16:20:43;17.00;;;11.93;;
10963;SDS011;5534;48.784;9.190;2023-02-14T16:23:17;16.13;;;11.73;;
10963;SDS011;5534;48.784;9.190;2023-02-14T16:25:47;18.60;;;12.37;;
10963;SDS011;5534;48.784;9.190;2023-02-14T16:28:14;18.20;;;12.00;;
10963;SDS011;5534;48.784;9.190;2023-02-14T16:30:41;16.93;;;11.60;;
10963;SDS011;5534;48.784;9.190;2023-02-14T16:33:11;17.33;;;11.70;;
10963;SDS011;5534;48.784;9.190;2023-02-14T16:35:41;16.60;;;10.73;;
10963;SDS011;5534;48.784;9.190;2023-02-14T16:38:10;18.63;;;11.93;;
10963;SDS011;5534;48.784;9.190;2023-02-14T16:40:41;20.70;;;13.67;;
10963;SDS011;5534;48.784;9.190;2023-02-14T16:43:12;20.30;;;12.50;;
10963;SDS011;5534;48.784;9.190;2023-02-14T16:45:39;17.53;;;11.40;;
10963;SDS011;5534;48.784;9.190;2023-02-14T16:48:06;18.77;;;12.07;;
10963;SDS011;5534;48.784;9.190;2023-02-14T16:50:33;18.50;;;11.73;;
10963;SDS011;5534;48.784;9.190;2023-02-14T16:53:03;18.80;;;12.30;;
10963;SDS011;5534;48.784;9.190;2023-02-14T16:55:33;20.77;;;12.17;;
10963;SDS011;5534;48.784;9.190;2023-02-14T16:57:59;20.63;;;12.70;;
10963;SDS011;5534;48.784;9.190;2023-02-14T17:00:26;22.40;;;14.63;;
10963;SDS011;5534;48.784;9.190;2023-02-14T17:02:53;21.30;;;12.83;;
10963;SDS011;5534;48.784;9.190;2023-02-14T17:05:31;20.30;;;13.07;;
10963;SDS011;5534;48.784;9.190;2023-02-14T17:07:59;18.67;;;13.13;;
10963;SDS011;5534;48.784;9.190;2023-02-14T17:10:27;23.20;;;12.70;;
10963;SDS011;5534;48.784;9.190;2023-02-14T17:12:54;20.60;;;13.27;;
10963;SDS011;5534;48.784;9.190;2023-02-14T17:15:23;21.00;;;13.30;;
10963;SDS011;5534;48.784;9.190;2023-02-14T17:17:50;19.43;;;13.23;;
10963;SDS011;5534;48.784;9.190;2023-02-14T17:20:20;23.37;;;13.67;;
10963;SDS011;5534;48.784;9.190;2023-02-14T17:22:48;20.03;;;14.47;;
10963;SDS011;5534;48.784;9.190;2023-02-14T17:25:14;23.13;;;14.43;;
10963;SDS011;5534;48.784;9.190;2023-02-14T17:27:40;22.23;;;14.20;;
10963;SDS011;5534;48.784;9.190;2023-02-14T17:30:10;22.20;;;14.30;;
10963;SDS011;5534;48.784;9.190;2023-02-14T17:32:40;22.37;;;13.53;;
10963;SDS011;5534;48.784;9.190;2023-02-14T17:35:06;18.53;;;11.80;;